Time;durP1;ratioP1;P1;durP2;ratioP2;P2;SDS_P1;SDS_P2;PMS_P1;PMS_P2;Temp;Humidity;BMP_temperature;BMP_pressure;BME280_temperature;BME280_humidity;BME280_pressure;Samples;Min_cycle;Max_cycle;Signal;HPM_P1;HPM_P2
2023/07/04 00:01:59;;;;;;;7.10;4.47;;;;;;;17.53;89.26;99903.75;4977233;28;20338;-59
2023/07/04 00:04:31;;;;;;;8.13;4.27;;;;;;;17.58;88.29;99907.84;5006827;28;20296;-58
2023/07/04 00:07:03;;;;;;;13.57;4.13;;;;;;;17.62;87.44;99897.97;5016787;28;20326;-57
2023/07/04 00:09:36;;;;;;;6.97;3.40;;;;;;;17.71;87.28;99901.94;5027338;28;20298;-56
2023/07/04 00:12:08;;;;;;;7.13;3.80;;;;;;;17.75;87.34;99892.94;5006426;28;20385;-57
2023/07/04 00:14:39;;;;;;;8.10;3.73;;;;;;;17.90;87.15;99902.72;4998081;28;20284;-57
2023/07/04 00:17:09;;;;;;;6.17;3.67;;;;;;;17.92;86.02;99900.81;5007202;28;20284;-56
2023/07/04 00:19:40;;;;;;;5.60;3.40;;;;;;;17.92;85.23;99900.81;4997403;28;20403;-56
2023/07/04 00:22:10;;;;;;;8.83;3.80;;;;;;;17.95;85.12;99899.84;5006947;28;20291;-56
2023/07/04 00:24:44;;;;;;;7.27;3.73;;;;;;;17.80;84.92;99869.78;4997064;28;20892;-58
2023/07/04 00:27:15;;;;;;;8.27;4.13;;;;;;;18.02;85.18;99902.09;5006899;28;20371;-57
2023/07/04 00:29:45;;;;;;;7.03;3.53;;;;;;;18.05;84.76;99901.91;4997989;28;20284;-57
2023/07/04 00:32:16;;;;;;;8.33;3.70;;;;;;;18.09;84.01;99903.44;5006910;28;20296;-57
2023/07/04 00:34:46;;;;;;;8.40;3.20;;;;;;;17.99;83.44;99896.09;4997363;28;20288;-57
2023/07/04 00:37:21;;;;;;;5.23;2.63;;;;;;;17.95;83.64;99905.97;5006630;28;20300;-58
2023/07/04 00:39:54;;;;;;;6.60;3.50;;;;;;;17.88;83.47;99899.31;4997344;28;20320;-57
2023/07/04 00:42:25;;;;;;;6.87;3.40;;;;;;;17.84;83.78;99908.31;4993857;28;20295;-57
2023/07/04 00:44:58;;;;;;;5.67;3.47;;;;;;;17.81;83.58;99897.91;4978103;28;20342;-56
2023/07/04 00:47:43;;;;;;;6.17;3.77;;;;;;;17.78;83.77;99906.81;5005724;28;20379;-56
2023/07/04 00:50:14;;;;;;;6.63;3.87;;;;;;;17.78;84.18;99908.63;4996489;28;20686;-58
2023/07/04 00:52:45;;;;;;;6.33;3.90;;;;;;;17.80;84.24;99912.06;4996512;28;20662;-58
2023/07/04 00:55:17;;;;;;;12.80;3.83;;;;;;;17.84;84.39;99908.31;5006441;28;20371;-59
2023/07/04 00:57:48;;;;;;;7.43;4.10;;;;;;;17.86;85.02;99914.38;4996578;28;20285;-58
2023/07/04 01:00:23;;;;;;;7.23;3.63;;;;;;;17.59;85.29;99864.63;5002952;28;20421;-58
2023/07/04 01:03:03;;;;;;;12.60;4.30;;;;;;;17.69;85.75;99884.34;4982265;28;20272;-58
2023/07/04 01:05:42;;;;;;;9.27;3.90;;;;;;;17.82;85.58;99915.47;4993939;28;20298;-58
2023/07/04 01:08:18;;;;;;;8.27;4.10;;;;;;;17.60;85.19;99890.13;4982175;28;20292;-58
2023/07/04 01:10:51;;;;;;;12.53;4.47;;;;;;;17.75;85.23;99914.06;4982480;28;20077;-59
2023/07/04 01:13:35;;;;;;;8.63;4.60;;;;;;;17.74;85.58;99917.63;4992429;28;20292;-58
2023/07/04 01:16:07;;;;;;;7.50;4.13;;;;;;;17.66;85.95;99910.94;4982223;28;20288;-57
2023/07/04 01:18:39;;;;;;;11.87;4.80;;;;;;;17.66;86.24;99921.50;4982189;28;20281;-59
2023/07/04 01:21:12;;;;;;;8.73;3.90;;;;;;;17.66;86.40;99915.38;4991821;28;20715;-57
2023/07/04 01:23:52;;;;;;;10.17;4.43;;;;;;;17.64;86.27;99918.09;4983124;28;20379;-59
2023/07/04 01:26:29;;;;;;;10.33;5.13;;;;;;;17.39;85.69;99885.94;4992312;28;20610;-59
2023/07/04 01:29:01;;;;;;;10.40;5.40;;;;;;;17.58;85.93;99915.78;4982552;28;21042;-58
2023/07/04 01:31:35;;;;;;;8.43;5.17;;;;;;;17.32;85.65;99889.81;4992292;28;20289;-58
2023/07/04 01:34:07;;;;;;;9.77;4.60;;;;;;;17.39;86.11;99897.34;4982288;28;20277;-58
2023/07/04 01:36:40;;;;;;;8.73;4.60;;;;;;;17.52;86.72;99923.13;4999385;28;20773;-58
2023/07/04 01:39:14;;;;;;;10.10;5.67;;;;;;;17.43;87.56;99903.34;5011070;28;20878;-59
2023/07/04 01:41:49;;;;;;;13.07;5.03;;;;;;;17.49;87.70;99924.16;5001980;28;20288;-59
2023/07/04 01:44:24;;;;;;;9.80;4.60;;;;;;;17.51;87.47;99917.00;5011678;28;20298;-59
2023/07/04 01:46:54;;;;;;;10.00;4.40;;;;;;;17.55;87.50;99915.94;5001531;28;20338;-58
2023/07/04 01:49:33;;;;;;;7.90;4.40;;;;;;;17.56;87.49;99919.44;5011090;28;20689;-58
2023/07/04 01:52:17;;;;;;;6.63;4.50;;;;;;;17.39;87.30;99885.94;5001042;28;20282;-58
2023/07/04 01:55:05;;;;;;;7.00;4.57;;;;;;;17.54;87.50;99914.19;5001176;28;20295;-59
2023/07/04 01:58:02;;;;;;;10.07;5.20;;;;;;;17.68;87.58;99913.50;5000990;28;20295;-59
2023/07/04 02:00:46;;;;;;;8.77;5.20;;;;;;;17.64;86.76;99911.94;5010994;28;20284;-59
2023/07/04 02:03:22;;;;;;;8.23;4.90;;;;;;;17.79;87.11;99920.88;4971391;28;20882;-58
2023/07/04 02:05:57;;;;;;;7.70;4.80;;;;;;;17.77;86.66;99922.75;4962148;28;20332;-58
2023/07/04 02:08:29;;;;;;;9.17;5.27;;;;;;;17.81;86.69;99924.34;4972016;28;20799;-58
2023/07/04 02:11:00;;;;;;;13.33;5.60;;;;;;;17.82;86.62;99920.75;4961423;28;20383;-59
2023/07/04 02:13:40;;;;;;;10.37;5.40;;;;;;;17.82;86.84;99916.34;4971660;28;20354;-57
2023/07/04 02:16:19;;;;;;;11.53;5.07;;;;;;;17.92;86.68;99921.13;4961747;28;21072;-58
2023/07/04 02:19:11;;;;;;;11.67;6.20;;;;;;;17.89;86.05;99924.78;4960885;28;20822;-57
2023/07/04 02:21:57;;;;;;;13.20;5.50;;;;;;;17.63;85.28;99883.84;4950317;28;20288;-57
2023/07/04 02:24:29;;;;;;;8.20;5.30;;;;;;;17.86;85.07;99922.31;4971838;28;20389;-58
2023/07/04 02:27:01;;;;;;;10.53;5.83;;;;;;;17.83;84.76;99933.03;4959017;28;20293;-58
2023/07/04 02:29:33;;;;;;;9.60;5.70;;;;;;;17.87;85.28;99934.56;4971830;28;20293;-58
2023/07/04 02:32:04;;;;;;;11.10;5.40;;;;;;;17.88;85.38;99931.88;4960890;28;20396;-59
2023/07/04 02:34:34;;;;;;;11.13;4.97;;;;;;;17.87;85.22;99930.16;4970765;28;20355;-58
2023/07/04 02:37:05;;;;;;;7.77;4.40;;;;;;;17.77;85.78;99906.88;4961439;28;20286;-59
2023/07/04 02:39:37;;;;;;;9.30;5.10;;;;;;;17.93;85.03;99912.28;4965606;28;20841;-58
2023/07/04 02:42:08;;;;;;;8.67;4.93;;;;;;;18.04;83.91;99926.63;4971444;28;20297;-60
2023/07/04 02:44:40;;;;;;;11.47;5.10;;;;;;;18.10;84.64;99936.91;4962254;28;20286;-58
2023/07/04 02:47:11;;;;;;;12.00;5.90;;;;;;;18.10;84.16;99926.31;4971276;28;20285;-57
2023/07/04 02:49:43;;;;;;;10.83;5.27;;;;;;;18.08;83.20;99924.69;4961351;28;20304;-58
2023/07/04 02:52:14;;;;;;;10.23;5.70;;;;;;;17.98;82.71;99921.66;4970627;28;20295;-58
2023/07/04 02:54:45;;;;;;;11.77;5.27;;;;;;;18.09;82.95;99919.31;4960767;28;20352;-58
2023/07/04 02:57:18;;;;;;;9.50;5.40;;;;;;;18.21;82.93;99923.09;4970738;28;20376;-58
2023/07/04 02:59:50;;;;;;;9.40;5.57;;;;;;;18.24;81.98;99916.78;4962164;28;20288;-58
2023/07/04 03:02:21;;;;;;;12.97;5.53;;;;;;;18.06;82.22;99887.75;4995038;28;20284;-58
2023/07/04 03:04:52;;;;;;;8.23;5.23;;;;;;;18.26;81.50;99921.06;4999326;28;20773;-59
2023/07/04 03:07:23;;;;;;;9.10;5.03;;;;;;;18.27;80.70;99917.50;5009789;28;20431;-58
2023/07/04 03:09:53;;;;;;;11.40;5.10;;;;;;;18.23;79.93;99915.94;4999747;28;20385;-59
2023/07/04 03:12:24;;;;;;;7.00;5.27;;;;;;;18.26;81.51;99920.22;5009620;28;20318;-58
2023/07/04 03:14:56;;;;;;;8.53;4.73;;;;;;;18.37;81.63;99907.28;5000520;28;20398;-58
2023/07/04 03:17:26;;;;;;;7.23;4.90;;;;;;;18.49;81.63;99911.88;5009901;28;20304;-58
2023/07/04 03:19:57;;;;;;;10.10;5.23;;;;;;;18.51;80.16;99920.56;4999542;28;20291;-58
2023/07/04 03:22:28;;;;;;;7.60;4.73;;;;;;;18.41;80.63;99919.38;5009963;28;20296;-58
2023/07/04 03:24:58;;;;;;;8.40;5.03;;;;;;;18.32;80.34;99925.16;5000019;28;20323;-58
2023/07/04 03:27:30;;;;;;;8.43;5.00;;;;;;;18.26;81.21;99928.13;5009647;28;20291;-58
2023/07/04 03:30:02;;;;;;;7.53;4.60;;;;;;;18.25;81.29;99929.09;5001323;28;20988;-57
2023/07/04 03:32:33;;;;;;;9.87;5.23;;;;;;;18.26;81.37;99926.34;5013742;28;20286;-59
2023/07/04 03:35:04;;;;;;;9.30;5.30;;;;;;;18.24;81.63;99930.00;5002620;28;20685;-58
2023/07/04 03:37:36;;;;;;;10.70;4.97;;;;;;;18.18;81.42;99928.56;5013295;28;20303;-58
2023/07/04 03:40:09;;;;;;;9.27;5.77;;;;;;;18.19;82.02;99929.41;5003204;28;20346;-57
2023/07/04 03:42:41;;;;;;;13.07;5.60;;;;;;;18.16;81.58;99933.06;5003089;28;20303;-58
2023/07/04 03:45:13;;;;;;;8.97;4.90;;;;;;;18.15;82.66;99923.44;5012963;28;20291;-58
2023/07/04 03:47:44;;;;;;;8.30;5.00;;;;;;;18.18;81.63;99927.72;5004770;28;20296;-58
2023/07/04 03:50:15;;;;;;;10.47;6.00;;;;;;;18.19;82.74;99929.41;5013675;28;20317;-59
2023/07/04 03:52:46;;;;;;;9.80;5.47;;;;;;;18.13;82.65;99927.09;5003468;28;20747;-58
2023/07/04 03:55:17;;;;;;;9.83;5.80;;;;;;;18.12;83.16;99939.44;5013720;28;20406;-59
2023/07/04 03:57:48;;;;;;;7.87;4.67;;;;;;;17.98;82.67;99931.41;5002889;28;20298;-58
2023/07/04 04:00:22;;;;;;;7.37;5.40;;;;;;;17.84;83.94;99927.66;5013108;28;20368;-58
2023/07/04 04:02:52;;;;;;;7.23;5.30;;;;;;;17.72;83.21;99930.91;5004004;28;21078;-58
2023/07/04 04:05:23;;;;;;;11.07;5.10;;;;;;;17.66;83.60;99940.00;5011790;28;20379;-58
2023/07/04 04:07:55;;;;;;;12.23;5.70;;;;;;;17.14;83.48;99860.75;5003775;28;20287;-59
2023/07/04 04:10:26;;;;;;;10.00;5.10;;;;;;;17.57;84.06;99943.13;5013520;28;20301;-57
2023/07/04 04:12:57;;;;;;;8.90;5.00;;;;;;;17.56;85.14;99940.56;5004425;28;21265;-58
2023/07/04 04:15:29;;;;;;;9.20;5.40;;;;;;;17.46;84.47;99935.72;5013762;28;20275;-57
2023/07/04 04:18:00;;;;;;;9.63;4.90;;;;;;;17.40;84.16;99933.41;5004477;28;20292;-56
2023/07/04 04:20:30;;;;;;;9.10;4.77;;;;;;;17.38;84.97;99931.78;5013339;28;20292;-57
2023/07/04 04:23:01;;;;;;;8.03;5.03;;;;;;;17.34;84.78;99931.06;5002873;28;20290;-57
2023/07/04 04:25:37;;;;;;;10.10;5.67;;;;;;;17.33;85.02;99933.78;5013062;28;20288;-58
2023/07/04 04:28:10;;;;;;;8.50;5.70;;;;;;;17.11;86.19;99908.44;5000521;28;20312;-57
2023/07/04 04:30:43;;;;;;;8.20;4.87;;;;;;;17.39;85.51;99930.81;5003184;28;20284;-58
2023/07/04 04:33:16;;;;;;;7.70;4.77;;;;;;;17.38;85.50;99937.06;5012591;28;20279;-58
2023/07/04 04:35:47;;;;;;;9.60;4.60;;;;;;;17.24;84.64;99935.94;5003270;28;20706;-58
2023/07/04 04:38:17;;;;;;;8.40;5.00;;;;;;;17.18;84.88;99936.25;5012491;28;20634;-58
2023/07/04 04:40:48;;;;;;;7.27;4.60;;;;;;;17.24;85.71;99930.66;5002865;28;20357;-58
2023/07/04 04:43:19;;;;;;;7.77;4.83;;;;;;;17.48;87.05;99938.31;5011610;28;20283;-58
2023/07/04 04:45:53;;;;;;;10.93;5.27;;;;;;;17.62;85.20;99935.81;5002932;28;20382;-59
2023/07/04 04:48:29;;;;;;;9.10;5.37;;;;;;;17.83;85.54;99943.63;5011864;28;20716;-58
2023/07/04 04:51:00;;;;;;;6.53;4.77;;;;;;;17.96;84.26;99939.41;5004223;28;20315;-58
2023/07/04 04:53:32;;;;;;;5.83;4.27;;;;;;;18.04;82.71;99937.19;5012755;28;20315;-57
2023/07/04 04:56:02;;;;;;;7.20;4.63;;;;;;;18.23;83.64;99941.53;5002307;28;20495;-58
2023/07/04 04:58:33;;;;;;;6.43;3.90;;;;;;;18.30;82.66;99943.75;5012261;28;20292;-58
2023/07/04 05:01:14;;;;;;;7.23;4.07;;;;;;;18.27;80.85;99943.06;5001588;28;20894;-58
2023/07/04 05:03:45;;;;;;;6.37;4.63;;;;;;;18.28;82.14;99950.06;5002085;28;20319;-58
2023/07/04 05:06:16;;;;;;;7.90;4.23;;;;;;;18.25;80.25;99944.97;5012006;28;20383;-58
2023/07/04 05:08:46;;;;;;;7.80;4.27;;;;;;;18.07;79.70;99942.34;5003220;28;20430;-58
2023/07/04 05:11:17;;;;;;;8.03;4.10;;;;;;;18.01;80.59;99947.94;5011691;28;20359;-58
2023/07/04 05:13:48;;;;;;;5.67;3.83;;;;;;;17.98;80.08;99945.47;5002628;28;20292;-57
2023/07/04 05:16:22;;;;;;;6.20;4.60;;;;;;;17.97;80.89;99946.41;5011577;28;20337;-58
2023/07/04 05:18:53;;;;;;;12.63;4.90;;;;;;;17.97;80.76;99941.13;5002054;28;20292;-58
2023/07/04 05:21:25;;;;;;;8.93;5.63;;;;;;;18.05;81.40;99954.78;5011758;28;20283;-58
2023/07/04 05:23:56;;;;;;;7.10;4.67;;;;;;;18.08;80.95;99954.63;5002166;28;20354;-58
2023/07/04 05:26:29;;;;;;;8.37;4.60;;;;;;;18.17;81.67;99949.78;5012078;28;20292;-58
2023/07/04 05:29:02;;;;;;;6.00;4.53;;;;;;;18.17;82.25;99949.78;5002562;28;20759;-57
2023/07/04 05:31:34;;;;;;;9.63;4.90;;;;;;;18.14;82.42;99952.59;5011856;28;20288;-58
2023/07/04 05:34:05;;;;;;;5.70;4.67;;;;;;;17.98;82.73;99953.41;5001244;28;20276;-57
2023/07/04 05:36:37;;;;;;;8.40;3.97;;;;;;;17.79;85.92;99955.25;5011461;28;20272;-59
2023/07/04 05:39:08;;;;;;;11.03;3.53;;;;;;;17.53;88.46;99932.78;5001094;28;20283;-59
2023/07/04 05:41:40;;;;;;;8.70;4.60;;;;;;;17.30;90.05;99961.19;5002088;28;20303;-57
2023/07/04 05:44:13;;;;;;;6.70;4.37;;;;;;;17.11;91.77;99942.75;5011207;28;20283;-57
2023/07/04 05:46:47;;;;;;;7.87;4.10;;;;;;;17.11;93.92;99953.31;5001053;28;20392;-58
2023/07/04 05:49:18;;;;;;;7.57;3.90;;;;;;;17.24;95.53;99962.34;5010657;28;20295;-58
2023/07/04 05:51:48;;;;;;;6.53;3.73;;;;;;;17.30;96.24;99962.97;5001686;28;20296;-58
2023/07/04 05:54:19;;;;;;;7.87;3.93;;;;;;;17.29;95.24;99961.25;5009593;28;20388;-57
2023/07/04 05:56:54;;;;;;;5.10;3.70;;;;;;;17.36;95.90;99954.75;5001909;28;20371;-58
2023/07/04 05:59:24;;;;;;;8.10;4.13;;;;;;;17.32;95.29;99947.91;5010965;28;20353;-59
2023/07/04 06:01:58;;;;;;;8.40;3.93;;;;;;;17.28;94.68;99949.84;5000736;28;20315;-57
2023/07/04 06:04:29;;;;;;;5.90;3.97;;;;;;;17.28;95.00;99933.16;5010986;28;20284;-57
2023/07/04 06:07:07;;;;;;;6.33;3.90;;;;;;;17.49;94.57;99949.72;5001420;28;20800;-58
2023/07/04 06:09:50;;;;;;;6.47;4.13;;;;;;;17.56;93.58;99941.41;5000689;28;20283;-58
2023/07/04 06:12:31;;;;;;;6.73;4.17;;;;;;;17.49;93.58;99945.28;5010421;28;20280;-58
2023/07/04 06:15:14;;;;;;;15.07;4.10;;;;;;;17.43;93.20;99950.88;5000296;28;20289;-58
2023/07/04 06:17:52;;;;;;;7.23;3.57;;;;;;;17.48;93.40;99948.88;5001215;28;20287;-59
2023/07/04 06:20:25;;;;;;;9.17;4.43;;;;;;;17.43;93.18;99945.59;5010380;28;20366;-59
2023/07/04 06:22:57;;;;;;;6.70;4.40;;;;;;;17.16;93.94;99919.63;5000986;28;20695;-58
2023/07/04 06:25:29;;;;;;;7.43;4.07;;;;;;;17.35;94.01;99955.69;5008150;28;20295;-58
2023/07/04 06:28:18;;;;;;;12.18;4.65;;;;;;;17.24;94.24;99957.06;5000184;28;20365;-59
2023/07/04 06:30:52;;;;;;;8.73;4.47;;;;;;;17.29;95.88;99961.25;5000412;28;20049;-58
2023/07/04 06:33:27;;;;;;;13.20;4.77;;;;;;;17.36;96.97;99954.75;5010285;28;20303;-58
2023/07/04 06:36:03;;;;;;;7.03;4.50;;;;;;;17.37;96.71;99962.63;5000490;28;20341;-58
2023/07/04 06:38:38;;;;;;;7.80;4.50;;;;;;;17.03;96.49;99916.72;5005298;28;20293;-58
2023/07/04 06:41:12;;;;;;;10.40;4.50;;;;;;;17.35;96.83;99960.97;5011020;28;20287;-58
2023/07/04 06:43:44;;;;;;;6.87;4.57;;;;;;;17.31;96.21;99962.06;5000790;28;20301;-58
2023/07/04 06:46:17;;;;;;;6.90;4.60;;;;;;;17.37;96.47;99957.34;5010084;28;20309;-58
2023/07/04 06:48:50;;;;;;;7.87;4.73;;;;;;;17.43;96.60;99961.44;5000282;28;20280;-58
2023/07/04 06:51:23;;;;;;;11.13;5.40;;;;;;;17.36;95.71;99965.31;5010205;28;21087;-58
2023/07/04 06:53:54;;;;;;;12.93;6.43;;;;;;;17.32;95.32;99959.31;5001191;28;20298;-58
2023/07/04 06:56:25;;;;;;;9.63;5.43;;;;;;;17.32;95.48;99963.75;5010087;28;20292;-58
2023/07/04 06:58:57;;;;;;;11.87;6.57;;;;;;;17.30;96.09;99965.59;5000757;28;20288;-58
2023/07/04 07:01:29;;;;;;;17.20;8.80;;;;;;;17.21;95.67;99962.50;5010431;28;20304;-59
2023/07/04 07:04:03;;;;;;;13.33;6.70;;;;;;;17.19;96.50;99956.41;5000381;28;20287;-58
2023/07/04 07:06:34;;;;;;;9.00;6.10;;;;;;;17.17;96.33;99960.06;5009778;28;20298;-58
2023/07/04 07:09:05;;;;;;;10.30;6.33;;;;;;;17.17;96.69;99954.78;4999935;28;20292;-58
2023/07/04 07:11:40;;;;;;;12.47;6.27;;;;;;;17.11;95.74;99955.09;5010625;28;20371;-57
2023/07/04 07:14:10;;;;;;;8.60;5.20;;;;;;;17.12;96.23;99960.28;5000124;28;20291;-57
2023/07/04 07:16:41;;;;;;;9.17;6.17;;;;;;;17.00;96.88;99958.25;5000405;28;20303;-57
2023/07/04 07:19:13;;;;;;;13.97;6.43;;;;;;;16.89;98.06;99960.53;5010283;28;20276;-58
2023/07/04 07:21:45;;;;;;;14.67;6.77;;;;;;;16.86;99.97;99950.13;5000026;28;20327;-58
2023/07/04 07:24:16;;;;;;;9.57;5.87;;;;;;;16.81;100.00;99953.84;5008195;28;20754;-58
2023/07/04 07:26:46;;;;;;;9.07;5.33;;;;;;;16.81;100.00;99964.41;5001079;28;20298;-58
2023/07/04 07:29:17;;;;;;;9.87;5.63;;;;;;;16.83;100.00;99960.84;5010161;28;20303;-58
2023/07/04 07:31:50;;;;;;;13.50;5.53;;;;;;;16.74;100.00;99957.66;4999893;28;20307;-58
2023/07/04 07:34:22;;;;;;;8.43;5.43;;;;;;;16.67;100.00;99952.75;5009301;28;20321;-57
2023/07/04 07:36:53;;;;;;;8.20;5.40;;;;;;;16.58;100.00;99956.66;5000331;28;20843;-59
2023/07/04 07:39:24;;;;;;;8.60;4.83;;;;;;;16.54;100.00;99960.38;5009395;28;20677;-61
2023/07/04 07:41:54;;;;;;;11.43;6.07;;;;;;;16.53;100.00;99969.22;5000527;28;20826;-60
2023/07/04 07:44:25;;;;;;;8.60;5.73;;;;;;;16.45;100.00;99968.69;5010125;28;20304;-59
2023/07/04 07:46:55;;;;;;;12.27;6.20;;;;;;;16.35;100.00;99963.84;4999980;28;20323;-60
2023/07/04 07:49:27;;;;;;;10.80;6.40;;;;;;;16.36;100.00;99972.59;5009814;28;20614;-59
2023/07/04 07:51:58;;;;;;;10.43;6.70;;;;;;;16.34;100.00;99969.19;5000594;28;20271;-59
2023/07/04 07:54:32;;;;;;;11.20;6.90;;;;;;;16.12;100.00;99932.38;5009748;28;20292;-57
2023/07/04 07:57:04;;;;;;;10.07;6.77;;;;;;;16.25;100.00;99954.66;4999205;28;20762;-59
2023/07/04 07:59:35;;;;;;;11.80;7.13;;;;;;;16.31;100.00;99974.59;5010500;28;20635;-59
2023/07/04 08:02:06;;;;;;;10.90;6.27;;;;;;;15.96;100.00;99922.50;4998831;28;20307;-58
2023/07/04 08:04:39;;;;;;;12.27;6.43;;;;;;;16.20;100.00;99972.44;5003153;28;20291;-59
2023/07/04 08:07:10;;;;;;;17.83;7.20;;;;;;;16.12;100.00;99958.72;5009549;28;20353;-60
2023/07/04 08:09:40;;;;;;;15.37;7.00;;;;;;;16.18;100.00;99969.00;4999854;28;20299;-58
2023/07/04 08:12:11;;;;;;;14.60;7.93;;;;;;;16.21;100.00;99963.59;5009622;28;20291;-60
2023/07/04 08:14:42;;;;;;;14.93;7.23;;;;;;;16.19;100.00;99957.53;5000344;28;20323;-59
2023/07/04 08:17:14;;;;;;;11.03;7.50;;;;;;;16.17;100.00;99946.19;5011495;28;20345;-61
2023/07/04 08:19:46;;;;;;;12.80;7.10;;;;;;;16.19;100.00;99954.91;5002684;28;20288;-58
2023/07/04 08:22:18;;;;;;;15.50;7.93;;;;;;;16.23;100.00;99961.75;5012614;28;20284;-60
2023/07/04 08:24:48;;;;;;;18.93;7.10;;;;;;;16.24;100.00;99960.81;5002547;28;20312;-60
2023/07/04 08:27:24;;;;;;;12.30;7.60;;;;;;;16.29;100.00;99966.75;5013035;28;20338;-60
2023/07/04 08:29:55;;;;;;;17.20;7.37;;;;;;;16.31;100.00;99964.91;5003408;28;20288;-59
2023/07/04 08:32:29;;;;;;;15.07;7.30;;;;;;;16.32;100.00;99966.59;5012854;28;20306;-61
2023/07/04 08:35:03;;;;;;;15.40;8.20;;;;;;;16.26;100.00;99961.63;5003254;28;20291;-58
2023/07/04 08:37:33;;;;;;;14.73;7.63;;;;;;;16.25;100.00;99967.81;5011276;28;20366;-61
2023/07/04 08:40:06;;;;;;;14.03;8.00;;;;;;;16.17;100.00;99959.38;5002476;28;20288;-62
2023/07/04 08:42:42;;;;;;;14.73;7.07;;;;;;;16.22;100.00;99975.00;5002308;28;20290;-61
2023/07/04 08:45:26;;;;;;;13.53;7.10;;;;;;;16.18;100.00;99963.75;5012643;28;20288;-59
2023/07/04 08:47:59;;;;;;;14.90;7.40;;;;;;;16.20;100.00;99974.19;5003289;28;20283;-62
2023/07/04 08:50:35;;;;;;;12.73;6.90;;;;;;;16.11;100.00;99957.03;5012627;28;20291;-59
2023/07/04 08:53:14;;;;;;;13.27;6.93;;;;;;;16.17;100.00;99972.56;5002652;28;20364;-59
2023/07/04 08:55:56;;;;;;;14.87;7.17;;;;;;;16.15;100.00;99971.78;5002347;28;20279;-59
2023/07/04 08:58:42;;;;;;;10.33;6.20;;;;;;;16.19;100.00;99986.53;5012285;28;20403;-58
2023/07/04 09:01:42;;;;;;;16.25;7.50;;;;;;;15.84;100.00;99938.84;5011619;28;20661;-60
2023/07/04 09:04:21;;;;;;;15.33;6.40;;;;;;;16.12;100.00;99991.22;4999757;28;20729;-58
2023/07/04 09:07:00;;;;;;;12.60;6.33;;;;;;;16.10;100.00;99992.19;5001570;28;20296;-59
2023/07/04 09:09:43;;;;;;;11.50;6.32;;;;;;;16.04;100.00;99981.94;5009536;28;20817;-60
2023/07/04 09:12:15;;;;;;;9.93;6.47;;;;;;;16.04;100.00;99982.78;5001267;28;20514;-59
2023/07/04 09:14:53;;;;;;;16.30;6.83;;;;;;;16.03;100.00;99985.50;5002344;28;20301;-59
2023/07/04 09:17:35;;;;;;;;;;;;;;;15.98;100.00;99987.47;5011763;28;20766;-59
2023/07/04 09:20:11;;;;;;;9.00;5.97;;;;;;;15.96;100.00;99985.75;5001299;28;20595;-60
2023/07/04 09:22:45;;;;;;;13.33;6.30;;;;;;;15.96;100.00;99988.38;5001642;28;20316;-59
2023/07/04 09:25:18;;;;;;;13.73;6.40;;;;;;;15.91;100.00;99982.47;5011122;28;20329;-59
2023/07/04 09:27:50;;;;;;;10.67;5.97;;;;;;;15.90;100.00;99986.03;5001389;28;20296;-59
2023/07/04 09:30:27;;;;;;;9.97;5.57;;;;;;;15.91;100.00;99981.63;5010984;28;20276;-60
2023/07/04 09:33:03;;;;;;;11.77;5.80;;;;;;;15.88;100.00;99993.13;5001103;28;20291;-60
2023/07/04 09:35:35;;;;;;;10.83;4.97;;;;;;;15.86;100.00;99994.97;5011888;28;20291;-59
2023/07/04 09:38:08;;;;;;;11.80;5.00;;;;;;;15.82;100.00;99998.66;5001161;28;20848;-59
2023/07/04 09:40:46;;;;;;;8.43;5.30;;;;;;;15.82;100.00;99996.00;5000914;28;20697;-59
2023/07/04 09:43:31;;;;;;;11.23;5.10;;;;;;;15.84;100.00;100001.22;5010665;28;20426;-59
2023/07/04 09:46:22;;;;;;;10.17;5.50;;;;;;;15.78;100.00;99997.09;5000402;28;20079;-58
2023/07/04 09:48:57;;;;;;;7.00;4.90;;;;;;;15.34;100.00;99931.28;5001062;28;20284;-59
2023/07/04 09:51:31;;;;;;;11.20;5.33;;;;;;;15.70;100.00;100004.44;5010876;28;20355;-58
2023/07/04 09:54:18;;;;;;;6.60;4.63;;;;;;;15.66;100.00;99997.56;4990039;28;20328;-59
2023/07/04 09:56:50;;;;;;;8.03;4.93;;;;;;;15.65;100.00;100001.09;4999635;28;20334;-61
2023/07/04 09:59:26;;;;;;;8.47;4.73;;;;;;;15.66;100.00;100008.09;5010643;28;20292;-59
2023/07/04 10:02:13;;;;;;;7.03;4.80;;;;;;;15.64;100.00;100004.66;4996893;28;20368;-59
2023/07/04 10:04:50;;;;;;;9.50;5.03;;;;;;;15.60;100.00;100009.22;5000517;28;20308;-59
2023/07/04 10:07:25;;;;;;;11.27;4.97;;;;;;;15.61;100.00;100010.06;5010187;28;20886;-59
2023/07/04 10:10:01;;;;;;;9.53;5.37;;;;;;;15.59;100.00;100006.63;5000177;28;20280;-62
2023/07/04 10:12:41;;;;;;;8.47;4.90;;;;;;;15.62;100.00;100011.78;5009701;28;20292;-59
2023/07/04 10:15:21;;;;;;;7.90;4.40;;;;;;;15.61;100.00;100004.81;4993186;28;20780;-60
2023/07/04 10:17:53;;;;;;;11.17;6.20;;;;;;;15.62;100.00;100011.78;5000788;28;20397;-60
2023/07/04 10:20:36;;;;;;;13.83;8.00;;;;;;;15.58;100.00;100004.94;5009883;28;20299;-60
2023/07/04 10:23:09;;;;;;;10.53;7.07;;;;;;;15.60;100.00;100013.59;5000429;28;20283;-58
2023/07/04 10:25:42;;;;;;;15.33;9.13;;;;;;;15.40;100.00;99978.44;4999971;28;20687;-59
2023/07/04 10:28:17;;;;;;;9.97;5.13;;;;;;;15.57;100.00;100008.47;5009616;28;20818;-60
2023/07/04 10:30:54;;;;;;;10.03;5.40;;;;;;;15.52;100.00;100022.69;4999876;28;20284;-63
2023/07/04 10:33:34;;;;;;;10.23;5.20;;;;;;;15.47;100.00;100014.09;5010255;28;20376;-61
2023/07/04 10:36:09;;;;;;;13.77;5.57;;;;;;;15.42;100.00;100010.81;4990236;28;20326;-57
2023/07/04 10:38:44;;;;;;;9.27;4.73;;;;;;;15.40;100.00;100023.19;4998519;28;20379;-60
2023/07/04 10:41:24;;;;;;;9.33;4.60;;;;;;;15.32;100.00;100009.47;5009516;28;20294;-58
2023/07/04 10:44:02;;;;;;;6.90;5.07;;;;;;;15.36;100.00;100016.31;5000685;28;20311;-60
2023/07/04 10:46:43;;;;;;;12.13;5.30;;;;;;;15.35;100.00;100025.16;5010084;28;20299;-59
2023/07/04 10:49:20;;;;;;;10.57;5.30;;;;;;;15.34;100.00;100020.78;5000485;28;20370;-60
2023/07/04 10:51:57;;;;;;;7.30;5.13;;;;;;;15.34;100.00;100026.06;5000511;28;21045;-58
2023/07/04 10:54:29;;;;;;;10.13;4.83;;;;;;;15.33;100.00;100021.72;5010809;28;20307;-61
2023/07/04 10:57:10;;;;;;;8.07;4.87;;;;;;;15.32;100.00;100026.13;5001082;28;20383;-58
2023/07/04 10:59:46;;;;;;;7.57;4.47;;;;;;;15.01;100.00;99968.56;5000981;28;20383;-59
2023/07/04 11:02:26;;;;;;;9.33;5.20;;;;;;;15.34;100.00;100033.94;5010218;28;20383;-59
2023/07/04 11:05:06;;;;;;;9.73;5.50;;;;;;;15.12;100.00;99998.88;5000456;28;20297;-59
2023/07/04 11:07:42;;;;;;;7.97;5.13;;;;;;;15.30;100.00;100032.34;5005395;28;20291;-58
2023/07/04 11:10:15;;;;;;;7.67;5.10;;;;;;;15.31;100.00;100028.81;5009794;28;20098;-59
2023/07/04 11:12:49;;;;;;;6.57;4.87;;;;;;;15.31;100.00;100037.56;5000515;28;20441;-58
2023/07/04 11:15:25;;;;;;;11.03;5.07;;;;;;;15.30;100.00;100038.50;5010469;28;20284;-60
2023/07/04 11:17:58;;;;;;;9.40;5.43;;;;;;;15.02;100.00;100001.84;5001542;28;20366;-58
2023/07/04 11:20:53;;;;;;;10.30;6.60;;;;;;;15.20;100.00;100038.88;5010782;28;20386;-57
2023/07/04 11:23:43;;;;;;;9.13;5.17;;;;;;;15.14;100.00;100028.63;5010068;28;20381;-59
2023/07/04 11:26:16;;;;;;;8.27;5.90;;;;;;;15.12;100.00;100033.06;4999853;28;20304;-58
2023/07/04 11:29:06;;;;;;;10.07;5.83;;;;;;;15.12;100.00;100038.34;5000423;28;20275;-60
2023/07/04 11:31:56;;;;;;;;;;;;;;;15.15;100.00;100043.47;5007179;28;20797;-59
2023/07/04 11:34:44;;;;;;;9.50;5.87;;;;;;;15.15;100.00;100038.22;5009658;28;19986;-59
2023/07/04 11:37:34;;;;;;;12.37;6.40;;;;;;;15.16;100.00;100045.22;4999665;28;21057;-58
2023/07/04 11:40:12;;;;;;;;;;;;;;;15.18;100.00;100043.38;4999605;28;20292;-60
2023/07/04 11:42:48;;;;;;;11.20;6.95;;;;;;;15.19;100.00;100047.72;5000253;28;19924;-59
2023/07/04 11:45:25;;;;;;;12.77;6.90;;;;;;;15.19;100.00;100045.09;5009367;28;20081;-59
2023/07/04 11:48:01;;;;;;;10.30;6.37;;;;;;;15.17;100.00;100042.50;5000699;28;20316;-60
2023/07/04 11:50:37;;;;;;;14.60;7.20;;;;;;;15.16;100.00;100039.94;5010107;28;20295;-60
2023/07/04 11:53:15;;;;;;;13.10;7.97;;;;;;;15.13;100.00;100046.19;5003291;28;20295;-60
2023/07/04 11:56:05;;;;;;;12.77;7.07;;;;;;;15.12;100.00;100048.88;5003035;28;20298;-58
2023/07/04 11:58:43;;;;;;;10.53;7.37;;;;;;;15.01;100.00;100041.41;5011246;28;20296;-56
2023/07/04 12:01:17;;;;;;;11.30;6.70;;;;;;;15.04;100.00;100047.38;5013167;28;20922;-58